sensor_id;sensor_type;location;lat;lon;timestamp;temperature;humidity
12025;DHT22;6073;53.230;10.444;2023-05-29T00:01:25;11.40;99.90
12025;DHT22;6073;53.230;10.444;2023-05-29T00:03:51;11.30;99.90
12025;DHT22;6073;53.230;10.444;2023-05-29T00:06:18;11.30;99.90
12025;DHT22;6073;53.230;10.444;2023-05-29T00:08:44;11.30;99.90
12025;DHT22;6073;53.230;10.444;2023-05-29T00:11:09;11.30;99.90
12025;DHT22;6073;53.230;10.444;2023-05-29T00:13:35;11.20;99.90
12025;DHT22;6073;53.230;10.444;2023-05-29T00:16:00;11.20;99.90
12025;DHT22;6073;53.230;10.444;2023-05-29T00:18:26;11.10;99.90
12025;DHT22;6073;53.230;10.444;2023-05-29T00:20:52;11.10;99.90
12025;DHT22;6073;53.230;10.444;2023-05-29T00:23:19;11.00;99.90
12025;DHT22;6073;53.230;10.444;2023-05-29T00:25:44;11.00;99.90
12025;DHT22;6073;53.230;10.444;2023-05-29T00:28:10;11.00;99.90
12025;DHT22;6073;53.230;10.444;2023-05-29T00:30:37;10.90;99.90
12025;DHT22;6073;53.230;10.444;2023-05-29T00:33:02;10.90;99.90
12025;DHT22;6073;53.230;10.444;2023-05-29T00:35:28;10.80;99.90
12025;DHT22;6073;53.230;10.444;2023-05-29T00:37:54;10.70;99.90
12025;DHT22;6073;53.230;10.444;2023-05-29T00:40:19;10.70;99.90
12025;DHT22;6073;53.230;10.444;2023-05-29T00:42:45;10.60;99.90
12025;DHT22;6073;53.230;10.444;2023-05-29T00:45:10;10.70;99.90
12025;DHT22;6073;53.230;10.444;2023-05-29T00:47:36;10.70;99.90
12025;DHT22;6073;53.230;10.444;2023-05-29T00:50:02;10.60;99.90
12025;DHT22;6073;53.230;10.444;2023-05-29T00:52:29;10.60;99.90
12025;DHT22;6073;53.230;10.444;2023-05-29T00:54:55;10.60;99.90
12025;DHT22;6073;53.230;10.444;2023-05-29T00:57:20;10.60;99.90
12025;DHT22;6073;53.230;10.444;2023-05-29T00:59:47;10.70;99.90
12025;DHT22;6073;53.230;10.444;2023-05-29T01:02:14;10.80;99.90
12025;DHT22;6073;53.230;10.444;2023-05-29T01:04:42;10.80;99.90
12025;DHT22;6073;53.230;10.444;2023-05-29T01:07:09;10.90;99.90
12025;DHT22;6073;53.230;10.444;2023-05-29T01:09:35;11.00;99.90
12025;DHT22;6073;53.230;10.444;2023-05-29T01:18:10;11.10;99.90
12025;DHT22;6073;53.230;10.444;2023-05-29T01:26:21;11.10;99.90
12025;DHT22;6073;53.230;10.444;2023-05-29T01:28:53;11.00;99.90
12025;DHT22;6073;53.230;10.444;2023-05-29T01:31:25;11.00;99.90
12025;DHT22;6073;53.230;10.444;2023-05-29T01:33:56;11.00;99.90
12025;DHT22;6073;53.230;10.444;2023-05-29T01:36:22;11.00;99.90
12025;DHT22;6073;53.230;10.444;2023-05-29T01:38:50;10.90;99.90
12025;DHT22;6073;53.230;10.444;2023-05-29T01:41:16;10.90;99.90
12025;DHT22;6073;53.230;10.444;2023-05-29T01:43:46;10.90;99.90
12025;DHT22;6073;53.230;10.444;2023-05-29T01:46:13;10.80;99.90
12025;DHT22;6073;53.230;10.444;2023-05-29T01:48:40;10.80;99.90
12025;DHT22;6073;53.230;10.444;2023-05-29T01:51:06;10.80;99.90
12025;DHT22;6073;53.230;10.444;2023-05-29T01:53:32;10.70;99.90
12025;DHT22;6073;53.230;10.444;2023-05-29T01:55:58;10.70;99.90
12025;DHT22;6073;53.230;10.444;2023-05-29T01:58:24;10.60;99.90
12025;DHT22;6073;53.230;10.444;2023-05-29T02:00:50;10.60;99.90
12025;DHT22;6073;53.230;10.444;2023-05-29T02:03:16;10.60;99.90
12025;DHT22;6073;53.230;10.444;2023-05-29T02:05:42;10.50;99.90
12025;DHT22;6073;53.230;10.444;2023-05-29T02:08:07;10.50;99.90
12025;DHT22;6073;53.230;10.444;2023-05-29T02:10:33;10.40;99.90
12025;DHT22;6073;53.230;10.444;2023-05-29T02:12:58;10.40;99.90
12025;DHT22;6073;53.230;10.444;2023-05-29T02:15:24;10.30;99.90
12025;DHT22;6073;53.230;10.444;2023-05-29T02:17:50;10.30;99.90
12025;DHT22;6073;53.230;10.444;2023-05-29T02:20:15;10.20;99.90
12025;DHT22;6073;53.230;10.444;2023-05-29T02:22:41;10.20;99.90
12025;DHT22;6073;53.230;10.444;2023-05-29T02:25:07;10.20;99.90
12025;DHT22;6073;53.230;10.444;2023-05-29T02:27:33;10.10;99.90
12025;DHT22;6073;53.230;10.444;2023-05-29T02:29:58;10.10;99.90
12025;DHT22;6073;53.230;10.444;2023-05-29T02:32:24;10.10;99.90
12025;DHT22;6073;53.230;10.444;2023-05-29T02:34:51;10.10;99.90
12025;DHT22;6073;53.230;10.444;2023-05-29T02:37:17;10.00;99.90
12025;DHT22;6073;53.230;10.444;2023-05-29T02:39:43;10.00;99.90
12025;DHT22;6073;53.230;10.444;2023-05-29T02:42:09;10.00;99.90
12025;DHT22;6073;53.230;10.444;2023-05-29T02:44:34;9.90;99.90
12025;DHT22;6073;53.230;10.444;2023-05-29T02:47:00;9.90;99.90
12025;DHT22;6073;53.230;10.444;2023-05-29T02:49:25;9.90;99.90
12025;DHT22;6073;53.230;10.444;2023-05-29T02:51:51;9.90;99.90
12025;DHT22;6073;53.230;10.444;2023-05-29T02:54:22;9.80;99.90
12025;DHT22;6073;53.230;10.444;2023-05-29T02:56:48;9.80;99.90
12025;DHT22;6073;53.230;10.444;2023-05-29T02:59:13;9.80;99.90
12025;DHT22;6073;53.230;10.444;2023-05-29T03:01:39;9.80;99.90
12025;DHT22;6073;53.230;10.444;2023-05-29T03:04:04;9.80;99.90
12025;DHT22;6073;53.230;10.444;2023-05-29T03:06:30;9.80;99.90
12025;DHT22;6073;53.230;10.444;2023-05-29T03:08:57;9.80;99.90
12025;DHT22;6073;53.230;10.444;2023-05-29T03:11:24;9.80;99.90
12025;DHT22;6073;53.230;10.444;2023-05-29T03:13:50;9.70;99.90
12025;DHT22;6073;53.230;10.444;2023-05-29T03:16:16;9.70;99.90
12025;DHT22;6073;53.230;10.444;2023-05-29T03:18:42;9.70;99.90
12025;DHT22;6073;53.230;10.444;2023-05-29T03:21:08;9.70;99.90
12025;DHT22;6073;53.230;10.444;2023-05-29T03:23:33;9.70;99.90
12025;DHT22;6073;53.230;10.444;2023-05-29T03:25:59;9.70;99.90
12025;DHT22;6073;53.230;10.444;2023-05-29T03:28:24;9.70;99.90
12025;DHT22;6073;53.230;10.444;2023-05-29T03:30:50;9.60;99.90
12025;DHT22;6073;53.230;10.444;2023-05-29T03:33:17;9.60;99.90
12025;DHT22;6073;53.230;10.444;2023-05-29T03:35:42;9.60;99.90
12025;DHT22;6073;53.230;10.444;2023-05-29T03:38:09;9.60;99.90
12025;DHT22;6073;53.230;10.444;2023-05-29T03:40:34;9.60;99.90
12025;DHT22;6073;53.230;10.444;2023-05-29T03:43:00;9.60;99.90
12025;DHT22;6073;53.230;10.444;2023-05-29T03:45:26;9.60;99.90
12025;DHT22;6073;53.230;10.444;2023-05-29T03:47:51;9.50;99.90
12025;DHT22;6073;53.230;10.444;2023-05-29T03:50:17;9.50;99.90
12025;DHT22;6073;53.230;10.444;2023-05-29T03:52:42;9.60;99.90
12025;DHT22;6073;53.230;10.444;2023-05-29T03:55:11;9.50;99.90
12025;DHT22;6073;53.230;10.444;2023-05-29T03:57:40;9.50;99.90
12025;DHT22;6073;53.230;10.444;2023-05-29T04:00:09;9.50;99.90
12025;DHT22;6073;53.230;10.444;2023-05-29T04:02:39;9.60;99.90
12025;DHT22;6073;53.230;10.444;2023-05-29T04:05:06;9.60;99.90
12025;DHT22;6073;53.230;10.444;2023-05-29T04:07:33;9.60;99.90
12025;DHT22;6073;53.230;10.444;2023-05-29T04:09:58;9.60;99.90
12025;DHT22;6073;53.230;10.444;2023-05-29T04:12:24;9.70;99.90
12025;DHT22;6073;53.230;10.444;2023-05-29T04:14:50;9.80;99.90
12025;DHT22;6073;53.230;10.444;2023-05-29T04:17:15;9.80;99.90
12025;DHT22;6073;53.230;10.444;2023-05-29T04:19:41;9.80;99.90
12025;DHT22;6073;53.230;10.444;2023-05-29T04:22:06;9.80;99.90
12025;DHT22;6073;53.230;10.444;2023-05-29T04:24:33;9.70;99.90
12025;DHT22;6073;53.230;10.444;2023-05-29T04:26:58;9.80;99.90
12025;DHT22;6073;53.230;10.444;2023-05-29T04:29:26;9.90;99.90
12025;DHT22;6073;53.230;10.444;2023-05-29T04:31:52;10.00;99.90
12025;DHT22;6073;53.230;10.444;2023-05-29T04:34:17;10.00;99.90
12025;DHT22;6073;53.230;10.444;2023-05-29T04:36:43;10.00;99.90
12025;DHT22;6073;53.230;10.444;2023-05-29T04:39:10;10.10;99.90
12025;DHT22;6073;53.230;10.444;2023-05-29T04:41:35;10.20;99.90
12025;DHT22;6073;53.230;10.444;2023-05-29T04:44:03;10.20;99.90
12025;DHT22;6073;53.230;10.444;2023-05-29T04:46:29;10.30;99.90
12025;DHT22;6073;53.230;10.444;2023-05-29T04:48:55;10.40;99.90
12025;DHT22;6073;53.230;10.444;2023-05-29T04:51:22;10.60;99.90
12025;DHT22;6073;53.230;10.444;2023-05-29T04:53:48;10.60;99.90
12025;DHT22;6073;53.230;10.444;2023-05-29T04:56:14;10.60;99.90
12025;DHT22;6073;53.230;10.444;2023-05-29T04:58:41;10.70;99.90
12025;DHT22;6073;53.230;10.444;2023-05-29T05:01:07;10.70;99.90
12025;DHT22;6073;53.230;10.444;2023-05-29T05:03:34;10.70;99.90
12025;DHT22;6073;53.230;10.444;2023-05-29T05:06:00;11.00;99.90
12025;DHT22;6073;53.230;10.444;2023-05-29T05:08:30;11.20;99.90
12025;DHT22;6073;53.230;10.444;2023-05-29T05:10:57;11.50;99.90
12025;DHT22;6073;53.230;10.444;2023-05-29T05:13:24;11.90;99.90
12025;DHT22;6073;53.230;10.444;2023-05-29T05:15:49;12.40;99.90
12025;DHT22;6073;53.230;10.444;2023-05-29T05:18:15;12.90;99.90
12025;DHT22;6073;53.230;10.444;2023-05-29T05:20:40;13.10;99.90
12025;DHT22;6073;53.230;10.444;2023-05-29T05:23:06;13.40;99.90
12025;DHT22;6073;53.230;10.444;2023-05-29T05:25:32;13.60;99.90
12025;DHT22;6073;53.230;10.444;2023-05-29T05:28:00;13.50;99.90
12025;DHT22;6073;53.230;10.444;2023-05-29T05:30:25;13.60;99.90
12025;DHT22;6073;53.230;10.444;2023-05-29T05:32:51;13.60;99.90
12025;DHT22;6073;53.230;10.444;2023-05-29T05:35:16;14.00;99.90
12025;DHT22;6073;53.230;10.444;2023-05-29T05:37:42;14.50;99.90
12025;DHT22;6073;53.230;10.444;2023-05-29T05:40:08;15.30;99.90
12025;DHT22;6073;53.230;10.444;2023-05-29T05:42:34;15.40;99.90
12025;DHT22;6073;53.230;10.444;2023-05-29T05:45:00;15.20;99.90
12025;DHT22;6073;53.230;10.444;2023-05-29T05:47:26;15.50;99.90
12025;DHT22;6073;53.230;10.444;2023-05-29T05:49:53;16.10;99.90
12025;DHT22;6073;53.230;10.444;2023-05-29T05:52:19;16.20;99.90
12025;DHT22;6073;53.230;10.444;2023-05-29T05:54:44;16.10;99.90
12025;DHT22;6073;53.230;10.444;2023-05-29T05:57:10;16.20;99.90
12025;DHT22;6073;53.230;10.444;2023-05-29T05:59:36;16.10;99.90
12025;DHT22;6073;53.230;10.444;2023-05-29T06:02:02;15.90;99.90
12025;DHT22;6073;53.230;10.444;2023-05-29T06:04:29;15.60;99.90
12025;DHT22;6073;53.230;10.444;2023-05-29T06:06:54;15.30;99.90
12025;DHT22;6073;53.230;10.444;2023-05-29T06:09:20;15.20;99.90
12025;DHT22;6073;53.230;10.444;2023-05-29T06:11:46;15.60;99.90
12025;DHT22;6073;53.230;10.444;2023-05-29T06:14:13;15.90;99.90
12025;DHT22;6073;53.230;10.444;2023-05-29T06:16:39;15.50;99.90
12025;DHT22;6073;53.230;10.444;2023-05-29T06:19:04;15.30;99.90
12025;DHT22;6073;53.230;10.444;2023-05-29T06:21:31;15.20;99.90
12025;DHT22;6073;53.230;10.444;2023-05-29T06:23:57;15.50;99.90
12025;DHT22;6073;53.230;10.444;2023-05-29T06:26:22;15.90;99.90
12025;DHT22;6073;53.230;10.444;2023-05-29T06:28:50;16.10;99.90
12025;DHT22;6073;53.230;10.444;2023-05-29T06:31:16;16.30;99.90
12025;DHT22;6073;53.230;10.444;2023-05-29T06:33:41;16.90;99.90
12025;DHT22;6073;53.230;10.444;2023-05-29T06:36:07;17.40;99.90
12025;DHT22;6073;53.230;10.444;2023-05-29T06:38:32;18.00;99.90
12025;DHT22;6073;53.230;10.444;2023-05-29T06:40:58;18.20;99.90
12025;DHT22;6073;53.230;10.444;2023-05-29T06:43:24;18.00;99.90
12025;DHT22;6073;53.230;10.444;2023-05-29T06:45:49;18.60;99.90
12025;DHT22;6073;53.230;10.444;2023-05-29T06:48:15;18.10;99.90
12025;DHT22;6073;53.230;10.444;2023-05-29T06:50:40;18.20;99.90
12025;DHT22;6073;53.230;10.444;2023-05-29T06:53:06;17.80;99.90
12025;DHT22;6073;53.230;10.444;2023-05-29T06:55:31;18.60;99.90
12025;DHT22;6073;53.230;10.444;2023-05-29T06:57:57;18.30;99.90
12025;DHT22;6073;53.230;10.444;2023-05-29T07:00:22;19.00;99.90
12025;DHT22;6073;53.230;10.444;2023-05-29T07:02:48;18.70;99.90
12025;DHT22;6073;53.230;10.444;2023-05-29T07:05:14;18.60;99.90
12025;DHT22;6073;53.230;10.444;2023-05-29T07:07:39;18.00;99.90
12025;DHT22;6073;53.230;10.444;2023-05-29T07:10:05;17.60;99.90
12025;DHT22;6073;53.230;10.444;2023-05-29T07:12:31;17.60;99.90
12025;DHT22;6073;53.230;10.444;2023-05-29T07:14:57;17.80;99.90
12025;DHT22;6073;53.230;10.444;2023-05-29T07:17:22;18.20;99.90
12025;DHT22;6073;53.230;10.444;2023-05-29T07:19:48;18.30;99.90
12025;DHT22;6073;53.230;10.444;2023-05-29T07:22:15;18.10;99.90
12025;DHT22;6073;53.230;10.444;2023-05-29T07:24:40;18.10;99.90
12025;DHT22;6073;53.230;10.444;2023-05-29T07:27:06;18.30;99.90
12025;DHT22;6073;53.230;10.444;2023-05-29T07:29:32;18.00;99.90
12025;DHT22;6073;53.230;10.444;2023-05-29T07:31:57;18.30;99.90
12025;DHT22;6073;53.230;10.444;2023-05-29T07:34:23;18.90;99.90
12025;DHT22;6073;53.230;10.444;2023-05-29T07:37:03;19.20;99.90
12025;DHT22;6073;53.230;10.444;2023-05-29T07:39:30;19.30;99.90
12025;DHT22;6073;53.230;10.444;2023-05-29T07:41:56;19.50;99.90
12025;DHT22;6073;53.230;10.444;2023-05-29T07:44:22;20.10;99.90
12025;DHT22;6073;53.230;10.444;2023-05-29T07:46:47;19.80;99.90
12025;DHT22;6073;53.230;10.444;2023-05-29T07:49:13;20.50;99.90
12025;DHT22;6073;53.230;10.444;2023-05-29T07:51:39;20.20;99.90
12025;DHT22;6073;53.230;10.444;2023-05-29T07:54:05;19.60;99.90
12025;DHT22;6073;53.230;10.444;2023-05-29T07:56:31;19.00;99.90
12025;DHT22;6073;53.230;10.444;2023-05-29T07:58:59;19.40;99.90
12025;DHT22;6073;53.230;10.444;2023-05-29T08:01:24;19.70;99.90
12025;DHT22;6073;53.230;10.444;2023-05-29T08:03:51;19.50;99.90
12025;DHT22;6073;53.230;10.444;2023-05-29T08:06:17;19.10;99.90
12025;DHT22;6073;53.230;10.444;2023-05-29T08:08:42;18.80;99.90
12025;DHT22;6073;53.230;10.444;2023-05-29T08:11:08;18.20;99.90
12025;DHT22;6073;53.230;10.444;2023-05-29T08:13:34;17.90;99.90
12025;DHT22;6073;53.230;10.444;2023-05-29T08:16:00;17.90;99.90
12025;DHT22;6073;53.230;10.444;2023-05-29T08:18:26;18.20;99.90
12025;DHT22;6073;53.230;10.444;2023-05-29T08:20:52;18.60;99.90
12025;DHT22;6073;53.230;10.444;2023-05-29T08:23:18;18.70;99.90
12025;DHT22;6073;53.230;10.444;2023-05-29T08:25:44;19.10;99.90
12025;DHT22;6073;53.230;10.444;2023-05-29T08:28:10;19.60;99.90
12025;DHT22;6073;53.230;10.444;2023-05-29T08:30:36;19.80;99.90
12025;DHT22;6073;53.230;10.444;2023-05-29T08:33:10;19.70;99.90
12025;DHT22;6073;53.230;10.444;2023-05-29T08:35:35;19.40;99.90
12025;DHT22;6073;53.230;10.444;2023-05-29T08:38:01;19.30;99.90
12025;DHT22;6073;53.230;10.444;2023-05-29T08:40:27;19.20;99.90
12025;DHT22;6073;53.230;10.444;2023-05-29T08:42:58;19.80;99.90
12025;DHT22;6073;53.230;10.444;2023-05-29T08:45:25;20.40;99.90
12025;DHT22;6073;53.230;10.444;2023-05-29T08:47:52;19.40;99.90
12025;DHT22;6073;53.230;10.444;2023-05-29T08:50:19;19.20;99.90
12025;DHT22;6073;53.230;10.444;2023-05-29T08:52:46;19.50;99.90
12025;DHT22;6073;53.230;10.444;2023-05-29T08:55:12;19.60;99.90
12025;DHT22;6073;53.230;10.444;2023-05-29T08:57:38;19.50;99.90
12025;DHT22;6073;53.230;10.444;2023-05-29T09:00:06;19.60;99.90
12025;DHT22;6073;53.230;10.444;2023-05-29T09:02:39;19.30;99.90
12025;DHT22;6073;53.230;10.444;2023-05-29T09:05:05;19.60;99.90
12025;DHT22;6073;53.230;10.444;2023-05-29T09:07:32;18.30;99.90
12025;DHT22;6073;53.230;10.444;2023-05-29T09:09:58;18.30;99.90
12025;DHT22;6073;53.230;10.444;2023-05-29T09:12:24;18.60;99.90
12025;DHT22;6073;53.230;10.444;2023-05-29T09:14:50;19.20;99.90
12025;DHT22;6073;53.230;10.444;2023-05-29T09:17:16;19.10;99.90
12025;DHT22;6073;53.230;10.444;2023-05-29T09:19:41;18.70;99.90
12025;DHT22;6073;53.230;10.444;2023-05-29T09:22:15;18.30;99.90
12025;DHT22;6073;53.230;10.444;2023-05-29T09:24:50;17.70;99.90
12025;DHT22;6073;53.230;10.444;2023-05-29T09:27:17;17.40;99.90
12025;DHT22;6073;53.230;10.444;2023-05-29T09:29:45;17.60;99.90
12025;DHT22;6073;53.230;10.444;2023-05-29T09:32:14;18.30;99.90
12025;DHT22;6073;53.230;10.444;2023-05-29T09:34:39;18.00;99.90
12025;DHT22;6073;53.230;10.444;2023-05-29T09:37:07;17.50;99.90
12025;DHT22;6073;53.230;10.444;2023-05-29T09:42:08;18.00;99.90
12025;DHT22;6073;53.230;10.444;2023-05-29T09:44:35;18.20;99.90
12025;DHT22;6073;53.230;10.444;2023-05-29T09:47:00;18.30;99.90
12025;DHT22;6073;53.230;10.444;2023-05-29T09:49:26;17.90;99.90
12025;DHT22;6073;53.230;10.444;2023-05-29T09:51:55;18.20;99.90
12025;DHT22;6073;53.230;10.444;2023-05-29T09:54:21;18.40;99.90
12025;DHT22;6073;53.230;10.444;2023-05-29T09:56:47;18.50;99.90
12025;DHT22;6073;53.230;10.444;2023-05-29T09:59:15;18.50;99.90
12025;DHT22;6073;53.230;10.444;2023-05-29T10:01:42;18.10;99.80
12025;DHT22;6073;53.230;10.444;2023-05-29T10:04:08;18.20;99.90
12025;DHT22;6073;53.230;10.444;2023-05-29T10:06:38;18.40;99.50
12025;DHT22;6073;53.230;10.444;2023-05-29T10:09:09;18.40;99.90
12025;DHT22;6073;53.230;10.444;2023-05-29T10:11:41;18.80;99.90
12025;DHT22;6073;53.230;10.444;2023-05-29T10:14:10;19.10;99.90
12025;DHT22;6073;53.230;10.444;2023-05-29T10:16:40;19.00;99.90
12025;DHT22;6073;53.230;10.444;2023-05-29T10:19:12;19.20;99.90
12025;DHT22;6073;53.230;10.444;2023-05-29T10:21:40;19.00;99.90
12025;DHT22;6073;53.230;10.444;2023-05-29T10:24:07;19.20;99.80
12025;DHT22;6073;53.230;10.444;2023-05-29T10:26:37;19.40;99.90
12025;DHT22;6073;53.230;10.444;2023-05-29T10:29:19;19.60;99.50
12025;DHT22;6073;53.230;10.444;2023-05-29T10:37:42;18.00;99.40
12025;DHT22;6073;53.230;10.444;2023-05-29T10:40:10;18.70;99.90
12025;DHT22;6073;53.230;10.444;2023-05-29T10:42:47;18.80;99.80
12025;DHT22;6073;53.230;10.444;2023-05-29T10:50:43;20.20;98.00
12025;DHT22;6073;53.230;10.444;2023-05-29T10:53:14;20.20;98.40
12025;DHT22;6073;53.230;10.444;2023-05-29T10:55:42;20.50;98.30
12025;DHT22;6073;53.230;10.444;2023-05-29T10:58:21;20.70;99.40
12025;DHT22;6073;53.230;10.444;2023-05-29T11:00:48;20.80;98.30
12025;DHT22;6073;53.230;10.444;2023-05-29T11:03:19;20.80;98.10
12025;DHT22;6073;53.230;10.444;2023-05-29T11:06:06;20.60;97.30
12025;DHT22;6073;53.230;10.444;2023-05-29T11:08:42;20.60;96.70
12025;DHT22;6073;53.230;10.444;2023-05-29T11:11:12;20.20;97.00
12025;DHT22;6073;53.230;10.444;2023-05-29T11:13:38;20.10;97.50
12025;DHT22;6073;53.230;10.444;2023-05-29T11:16:12;20.10;97.40
12025;DHT22;6073;53.230;10.444;2023-05-29T11:18:45;20.00;97.20
12025;DHT22;6073;53.230;10.444;2023-05-29T11:24:02;19.70;96.30
12025;DHT22;6073;53.230;10.444;2023-05-29T11:26:29;20.30;96.00
12025;DHT22;6073;53.230;10.444;2023-05-29T11:29:05;20.90;96.40
12025;DHT22;6073;53.230;10.444;2023-05-29T11:31:37;21.20;97.90
12025;DHT22;6073;53.230;10.444;2023-05-29T11:34:04;21.10;96.30
12025;DHT22;6073;53.230;10.444;2023-05-29T11:36:34;20.90;96.90
12025;DHT22;6073;53.230;10.444;2023-05-29T11:39:00;20.20;95.90
12025;DHT22;6073;53.230;10.444;2023-05-29T11:41:26;20.30;96.20
12025;DHT22;6073;53.230;10.444;2023-05-29T11:44:00;20.30;96.40
12025;DHT22;6073;53.230;10.444;2023-05-29T11:46:27;19.70;96.20
12025;DHT22;6073;53.230;10.444;2023-05-29T11:48:56;19.80;96.60
12025;DHT22;6073;53.230;10.444;2023-05-29T11:51:22;20.20;97.30
12025;DHT22;6073;53.230;10.444;2023-05-29T11:53:48;19.70;96.00
12025;DHT22;6073;53.230;10.444;2023-05-29T11:56:14;19.40;95.60
12025;DHT22;6073;53.230;10.444;2023-05-29T11:58:40;19.50;96.30
12025;DHT22;6073;53.230;10.444;2023-05-29T12:01:07;19.30;96.20
12025;DHT22;6073;53.230;10.444;2023-05-29T12:03:42;19.60;96.90
12025;DHT22;6073;53.230;10.444;2023-05-29T12:06:09;20.00;95.80
12025;DHT22;6073;53.230;10.444;2023-05-29T12:08:36;20.30;96.70
12025;DHT22;6073;53.230;10.444;2023-05-29T12:11:02;20.30;96.60
12025;DHT22;6073;53.230;10.444;2023-05-29T12:13:28;20.70;95.70
12025;DHT22;6073;53.230;10.444;2023-05-29T12:15:59;20.80;95.30
12025;DHT22;6073;53.230;10.444;2023-05-29T12:18:26;20.90;95.40
12025;DHT22;6073;53.230;10.444;2023-05-29T12:21:00;20.50;93.70
12025;DHT22;6073;53.230;10.444;2023-05-29T12:23:27;20.70;94.90
12025;DHT22;6073;53.230;10.444;2023-05-29T12:25:53;20.90;95.20
12025;DHT22;6073;53.230;10.444;2023-05-29T12:28:20;21.10;95.80
12025;DHT22;6073;53.230;10.444;2023-05-29T12:30:47;21.50;96.20
12025;DHT22;6073;53.230;10.444;2023-05-29T12:33:31;21.40;94.70
12025;DHT22;6073;53.230;10.444;2023-05-29T12:36:07;21.00;93.00
12025;DHT22;6073;53.230;10.444;2023-05-29T12:38:50;20.50;94.10
12025;DHT22;6073;53.230;10.444;2023-05-29T12:41:23;20.70;94.70
12025;DHT22;6073;53.230;10.444;2023-05-29T12:43:48;20.20;93.50
12025;DHT22;6073;53.230;10.444;2023-05-29T12:46:14;20.20;95.70
12025;DHT22;6073;53.230;10.444;2023-05-29T12:48:40;20.50;94.40
12025;DHT22;6073;53.230;10.444;2023-05-29T12:51:06;20.50;95.00
12025;DHT22;6073;53.230;10.444;2023-05-29T12:53:33;20.60;94.10
12025;DHT22;6073;53.230;10.444;2023-05-29T12:55:58;20.80;94.20
12025;DHT22;6073;53.230;10.444;2023-05-29T12:58:24;21.10;95.20
12025;DHT22;6073;53.230;10.444;2023-05-29T13:00:52;21.40;94.80
12025;DHT22;6073;53.230;10.444;2023-05-29T13:03:21;21.50;95.00
12025;DHT22;6073;53.230;10.444;2023-05-29T13:05:49;21.20;93.80
12025;DHT22;6073;53.230;10.444;2023-05-29T13:08:15;21.10;95.50
12025;DHT22;6073;53.230;10.444;2023-05-29T13:10:41;20.80;93.70
12025;DHT22;6073;53.230;10.444;2023-05-29T13:13:06;20.80;94.00
12025;DHT22;6073;53.230;10.444;2023-05-29T13:15:32;20.80;94.20
12025;DHT22;6073;53.230;10.444;2023-05-29T13:17:59;20.80;94.40
12025;DHT22;6073;53.230;10.444;2023-05-29T13:20:24;20.90;94.60
12025;DHT22;6073;53.230;10.444;2023-05-29T13:22:50;20.90;94.30
12025;DHT22;6073;53.230;10.444;2023-05-29T13:25:17;20.40;93.60
12025;DHT22;6073;53.230;10.444;2023-05-29T13:27:44;20.50;94.60
12025;DHT22;6073;53.230;10.444;2023-05-29T13:30:11;20.80;95.10
12025;DHT22;6073;53.230;10.444;2023-05-29T13:32:38;20.70;95.00
12025;DHT22;6073;53.230;10.444;2023-05-29T13:35:04;21.10;95.00
12025;DHT22;6073;53.230;10.444;2023-05-29T13:37:30;21.20;94.00
12025;DHT22;6073;53.230;10.444;2023-05-29T13:39:56;20.80;94.20
12025;DHT22;6073;53.230;10.444;2023-05-29T13:42:32;20.60;93.80
12025;DHT22;6073;53.230;10.444;2023-05-29T13:44:58;20.70;94.50
12025;DHT22;6073;53.230;10.444;2023-05-29T13:47:23;20.80;94.70
12025;DHT22;6073;53.230;10.444;2023-05-29T13:49:49;21.20;95.50
12025;DHT22;6073;53.230;10.444;2023-05-29T13:52:15;21.40;94.10
12025;DHT22;6073;53.230;10.444;2023-05-29T13:54:41;20.90;93.40
12025;DHT22;6073;53.230;10.444;2023-05-29T13:57:07;21.00;93.80
12025;DHT22;6073;53.230;10.444;2023-05-29T13:59:34;21.20;95.60
12025;DHT22;6073;53.230;10.444;2023-05-29T14:02:00;21.30;95.20
12025;DHT22;6073;53.230;10.444;2023-05-29T14:04:26;20.90;92.90
12025;DHT22;6073;53.230;10.444;2023-05-29T14:06:52;21.20;95.10
12025;DHT22;6073;53.230;10.444;2023-05-29T14:09:18;21.10;93.20
12025;DHT22;6073;53.230;10.444;2023-05-29T14:11:52;21.10;93.50
12025;DHT22;6073;53.230;10.444;2023-05-29T14:14:17;20.80;91.30
12025;DHT22;6073;53.230;10.444;2023-05-29T14:16:43;20.80;91.20
12025;DHT22;6073;53.230;10.444;2023-05-29T14:19:08;20.90;92.60
12025;DHT22;6073;53.230;10.444;2023-05-29T14:21:34;21.30;93.90
12025;DHT22;6073;53.230;10.444;2023-05-29T14:24:01;21.60;93.20
12025;DHT22;6073;53.230;10.444;2023-05-29T14:26:26;21.90;92.60
12025;DHT22;6073;53.230;10.444;2023-05-29T14:28:52;22.00;93.70
12025;DHT22;6073;53.230;10.444;2023-05-29T14:31:17;22.10;92.90
12025;DHT22;6073;53.230;10.444;2023-05-29T14:33:43;21.50;91.00
12025;DHT22;6073;53.230;10.444;2023-05-29T14:36:08;21.00;91.30
12025;DHT22;6073;53.230;10.444;2023-05-29T14:38:34;21.10;92.40
12025;DHT22;6073;53.230;10.444;2023-05-29T14:41:01;21.10;92.50
12025;DHT22;6073;53.230;10.444;2023-05-29T14:43:27;21.40;93.40
12025;DHT22;6073;53.230;10.444;2023-05-29T14:45:52;21.40;92.20
12025;DHT22;6073;53.230;10.444;2023-05-29T14:48:18;21.70;92.80
12025;DHT22;6073;53.230;10.444;2023-05-29T14:50:43;21.80;92.70
12025;DHT22;6073;53.230;10.444;2023-05-29T14:53:09;21.90;92.90
12025;DHT22;6073;53.230;10.444;2023-05-29T14:55:34;21.70;91.80
12025;DHT22;6073;53.230;10.444;2023-05-29T14:58:03;21.50;92.30
12025;DHT22;6073;53.230;10.444;2023-05-29T15:00:29;21.40;91.20
12025;DHT22;6073;53.230;10.444;2023-05-29T15:02:55;21.40;91.70
12025;DHT22;6073;53.230;10.444;2023-05-29T15:05:24;21.50;92.40
12025;DHT22;6073;53.230;10.444;2023-05-29T15:07:50;21.10;90.60
12025;DHT22;6073;53.230;10.444;2023-05-29T15:10:15;20.90;90.60
12025;DHT22;6073;53.230;10.444;2023-05-29T15:12:45;20.80;90.50
12025;DHT22;6073;53.230;10.444;2023-05-29T15:15:11;20.80;90.80
12025;DHT22;6073;53.230;10.444;2023-05-29T15:17:36;21.10;91.90
12025;DHT22;6073;53.230;10.444;2023-05-29T15:20:04;21.30;91.20
12025;DHT22;6073;53.230;10.444;2023-05-29T15:22:29;21.60;91.50
12025;DHT22;6073;53.230;10.444;2023-05-29T15:24:55;21.40;90.80
12025;DHT22;6073;53.230;10.444;2023-05-29T15:27:21;21.50;90.90
12025;DHT22;6073;53.230;10.444;2023-05-29T15:29:46;21.40;90.90
12025;DHT22;6073;53.230;10.444;2023-05-29T15:32:11;21.20;90.10
12025;DHT22;6073;53.230;10.444;2023-05-29T15:34:37;21.20;91.50
12025;DHT22;6073;53.230;10.444;2023-05-29T15:37:05;21.40;92.30
12025;DHT22;6073;53.230;10.444;2023-05-29T15:39:31;21.70;93.40
12025;DHT22;6073;53.230;10.444;2023-05-29T15:41:56;21.80;92.90
12025;DHT22;6073;53.230;10.444;2023-05-29T15:44:22;21.90;92.40
12025;DHT22;6073;53.230;10.444;2023-05-29T15:46:47;21.40;92.30
12025;DHT22;6073;53.230;10.444;2023-05-29T15:49:13;21.20;92.60
12025;DHT22;6073;53.230;10.444;2023-05-29T15:51:39;20.80;92.50
12025;DHT22;6073;53.230;10.444;2023-05-29T15:54:06;20.70;92.70
12025;DHT22;6073;53.230;10.444;2023-05-29T15:56:32;20.70;92.80
12025;DHT22;6073;53.230;10.444;2023-05-29T15:58:57;20.80;93.00